sensor_id;sensor_type;location;lat;lon;timestamp;P1;durP1;ratioP1;P2;durP2;ratioP2
16854;SDS011;8543;54.522;18.550;2022-12-29T00:01:20;8.50;;;5.60;;
16854;SDS011;8543;54.522;18.550;2022-12-29T00:03:45;7.60;;;5.00;;
16854;SDS011;8543;54.522;18.550;2022-12-29T00:06:11;8.00;;;5.40;;
16854;SDS011;8543;54.522;18.550;2022-12-29T00:08:37;8.50;;;5.30;;
16854;SDS011;8543;54.522;18.550;2022-12-29T00:11:06;7.30;;;5.30;;
16854;SDS011;8543;54.522;18.550;2022-12-29T00:13:33;7.90;;;5.00;;
16854;SDS011;8543;54.522;18.550;2022-12-29T00:16:17;7.90;;;4.90;;
16854;SDS011;8543;54.522;18.550;2022-12-29T00:18:42;7.50;;;4.90;;
16854;SDS011;8543;54.522;18.550;2022-12-29T00:21:10;7.70;;;5.40;;
16854;SDS011;8543;54.522;18.550;2022-12-29T00:23:57;7.60;;;5.10;;
16854;SDS011;8543;54.522;18.550;2022-12-29T00:27:13;7.20;;;4.80;;
16854;SDS011;8543;54.522;18.550;2022-12-29T00:29:57;6.80;;;4.60;;
16854;SDS011;8543;54.522;18.550;2022-12-29T00:32:41;6.50;;;4.30;;
16854;SDS011;8543;54.522;18.550;2022-12-29T00:35:29;6.80;;;4.10;;
16854;SDS011;8543;54.522;18.550;2022-12-29T00:37:57;7.30;;;4.00;;
16854;SDS011;8543;54.522;18.550;2022-12-29T00:40:43;6.60;;;4.80;;
16854;SDS011;8543;54.522;18.550;2022-12-29T00:43:27;6.00;;;4.00;;
16854;SDS011;8543;54.522;18.550;2022-12-29T00:46:11;4.90;;;3.60;;
16854;SDS011;8543;54.522;18.550;2022-12-29T00:48:36;5.10;;;3.50;;
16854;SDS011;8543;54.522;18.550;2022-12-29T00:51:20;5.40;;;3.60;;
16854;SDS011;8543;54.522;18.550;2022-12-29T00:53:46;5.60;;;3.90;;
16854;SDS011;8543;54.522;18.550;2022-12-29T00:56:11;6.40;;;4.00;;
16854;SDS011;8543;54.522;18.550;2022-12-29T00:58:37;5.60;;;3.20;;
16854;SDS011;8543;54.522;18.550;2022-12-29T01:01:07;6.40;;;4.00;;
16854;SDS011;8543;54.522;18.550;2022-12-29T01:03:36;5.00;;;3.40;;
16854;SDS011;8543;54.522;18.550;2022-12-29T01:06:02;6.40;;;3.70;;
16854;SDS011;8543;54.522;18.550;2022-12-29T01:08:29;6.10;;;3.50;;
16854;SDS011;8543;54.522;18.550;2022-12-29T01:13:50;4.90;;;3.10;;
16854;SDS011;8543;54.522;18.550;2022-12-29T01:16:15;5.60;;;3.10;;
16854;SDS011;8543;54.522;18.550;2022-12-29T01:18:41;5.30;;;2.90;;
16854;SDS011;8543;54.522;18.550;2022-12-29T01:21:06;3.90;;;2.50;;
16854;SDS011;8543;54.522;18.550;2022-12-29T01:23:32;4.90;;;3.40;;
16854;SDS011;8543;54.522;18.550;2022-12-29T01:25:57;4.80;;;2.90;;
16854;SDS011;8543;54.522;18.550;2022-12-29T01:28:33;3.80;;;2.60;;
16854;SDS011;8543;54.522;18.550;2022-12-29T01:31:00;3.70;;;2.60;;
16854;SDS011;8543;54.522;18.550;2022-12-29T01:33:26;3.80;;;2.40;;
16854;SDS011;8543;54.522;18.550;2022-12-29T01:35:51;4.40;;;2.90;;
16854;SDS011;8543;54.522;18.550;2022-12-29T01:38:17;4.60;;;2.70;;
16854;SDS011;8543;54.522;18.550;2022-12-29T01:40:43;4.00;;;2.70;;
16854;SDS011;8543;54.522;18.550;2022-12-29T01:43:10;4.40;;;2.80;;
16854;SDS011;8543;54.522;18.550;2022-12-29T01:45:44;4.40;;;2.60;;
16854;SDS011;8543;54.522;18.550;2022-12-29T01:48:14;3.70;;;2.40;;
16854;SDS011;8543;54.522;18.550;2022-12-29T01:50:41;3.00;;;2.50;;
16854;SDS011;8543;54.522;18.550;2022-12-29T01:53:21;4.00;;;2.30;;
16854;SDS011;8543;54.522;18.550;2022-12-29T01:55:54;3.80;;;2.40;;
16854;SDS011;8543;54.522;18.550;2022-12-29T01:58:22;3.50;;;2.30;;
16854;SDS011;8543;54.522;18.550;2022-12-29T02:00:49;5.20;;;2.50;;
16854;SDS011;8543;54.522;18.550;2022-12-29T02:03:16;4.30;;;2.40;;
16854;SDS011;8543;54.522;18.550;2022-12-29T02:05:58;4.10;;;2.30;;
16854;SDS011;8543;54.522;18.550;2022-12-29T02:08:28;3.90;;;2.20;;
16854;SDS011;8543;54.522;18.550;2022-12-29T02:10:58;4.70;;;2.30;;
16854;SDS011;8543;54.522;18.550;2022-12-29T02:13:24;3.30;;;2.10;;
16854;SDS011;8543;54.522;18.550;2022-12-29T02:32:05;3.50;;;2.00;;
16854;SDS011;8543;54.522;18.550;2022-12-29T02:37:32;2.70;;;1.80;;
16854;SDS011;8543;54.522;18.550;2022-12-29T02:43:10;3.20;;;2.00;;
16854;SDS011;8543;54.522;18.550;2022-12-29T02:45:41;2.50;;;1.80;;
16854;SDS011;8543;54.522;18.550;2022-12-29T02:50:57;2.60;;;1.80;;
16854;SDS011;8543;54.522;18.550;2022-12-29T02:56:12;3.00;;;1.90;;
16854;SDS011;8543;54.522;18.550;2022-12-29T02:58:37;3.00;;;2.00;;
16854;SDS011;8543;54.522;18.550;2022-12-29T03:01:07;3.40;;;1.90;;
16854;SDS011;8543;54.522;18.550;2022-12-29T03:12:30;3.10;;;2.00;;
16854;SDS011;8543;54.522;18.550;2022-12-29T03:15:22;4.90;;;2.30;;
16854;SDS011;8543;54.522;18.550;2022-12-29T03:18:19;3.30;;;2.20;;
16854;SDS011;8543;54.522;18.550;2022-12-29T03:23:13;3.60;;;1.80;;
16854;SDS011;8543;54.522;18.550;2022-12-29T03:25:40;3.40;;;2.20;;
16854;SDS011;8543;54.522;18.550;2022-12-29T03:28:13;3.60;;;2.30;;
16854;SDS011;8543;54.522;18.550;2022-12-29T03:30:42;3.90;;;2.30;;
16854;SDS011;8543;54.522;18.550;2022-12-29T03:33:09;2.90;;;2.00;;
16854;SDS011;8543;54.522;18.550;2022-12-29T03:35:37;3.10;;;2.20;;
16854;SDS011;8543;54.522;18.550;2022-12-29T03:40:29;3.30;;;2.10;;
16854;SDS011;8543;54.522;18.550;2022-12-29T03:42:56;3.20;;;2.10;;
16854;SDS011;8543;54.522;18.550;2022-12-29T03:45:22;3.40;;;2.10;;
16854;SDS011;8543;54.522;18.550;2022-12-29T03:47:48;4.10;;;2.20;;
16854;SDS011;8543;54.522;18.550;2022-12-29T03:50:13;3.90;;;2.20;;
16854;SDS011;8543;54.522;18.550;2022-12-29T03:52:39;3.90;;;2.40;;
16854;SDS011;8543;54.522;18.550;2022-12-29T03:55:05;4.00;;;2.70;;
16854;SDS011;8543;54.522;18.550;2022-12-29T03:57:30;4.40;;;2.70;;
16854;SDS011;8543;54.522;18.550;2022-12-29T03:59:56;3.60;;;2.30;;
16854;SDS011;8543;54.522;18.550;2022-12-29T04:02:21;3.60;;;2.30;;
16854;SDS011;8543;54.522;18.550;2022-12-29T04:04:47;3.70;;;2.40;;
16854;SDS011;8543;54.522;18.550;2022-12-29T04:07:12;4.20;;;2.60;;
16854;SDS011;8543;54.522;18.550;2022-12-29T04:09:37;3.60;;;2.30;;
16854;SDS011;8543;54.522;18.550;2022-12-29T04:12:03;5.20;;;2.50;;
16854;SDS011;8543;54.522;18.550;2022-12-29T04:14:28;3.40;;;2.30;;
16854;SDS011;8543;54.522;18.550;2022-12-29T04:16:54;4.50;;;2.90;;
16854;SDS011;8543;54.522;18.550;2022-12-29T04:19:19;4.70;;;2.80;;
16854;SDS011;8543;54.522;18.550;2022-12-29T04:21:45;3.80;;;2.70;;
16854;SDS011;8543;54.522;18.550;2022-12-29T04:24:10;5.60;;;3.30;;
16854;SDS011;8543;54.522;18.550;2022-12-29T04:26:38;3.90;;;2.80;;
16854;SDS011;8543;54.522;18.550;2022-12-29T04:29:03;5.00;;;3.10;;
16854;SDS011;8543;54.522;18.550;2022-12-29T04:31:29;4.10;;;2.80;;
16854;SDS011;8543;54.522;18.550;2022-12-29T04:33:54;5.70;;;3.30;;
16854;SDS011;8543;54.522;18.550;2022-12-29T04:36:22;5.30;;;3.60;;
16854;SDS011;8543;54.522;18.550;2022-12-29T04:38:48;5.10;;;3.60;;
16854;SDS011;8543;54.522;18.550;2022-12-29T04:41:13;5.00;;;3.60;;
16854;SDS011;8543;54.522;18.550;2022-12-29T04:43:38;4.80;;;3.40;;
16854;SDS011;8543;54.522;18.550;2022-12-29T04:46:04;5.40;;;4.10;;
16854;SDS011;8543;54.522;18.550;2022-12-29T04:48:30;7.40;;;4.50;;
16854;SDS011;8543;54.522;18.550;2022-12-29T04:50:55;7.00;;;4.60;;
16854;SDS011;8543;54.522;18.550;2022-12-29T04:53:20;7.60;;;5.20;;
16854;SDS011;8543;54.522;18.550;2022-12-29T04:55:52;6.60;;;4.90;;
16854;SDS011;8543;54.522;18.550;2022-12-29T04:58:18;7.30;;;5.20;;
16854;SDS011;8543;54.522;18.550;2022-12-29T05:00:44;6.70;;;5.20;;
16854;SDS011;8543;54.522;18.550;2022-12-29T05:03:10;6.50;;;5.10;;
16854;SDS011;8543;54.522;18.550;2022-12-29T05:05:35;7.00;;;5.50;;
16854;SDS011;8543;54.522;18.550;2022-12-29T05:08:01;8.00;;;6.10;;
16854;SDS011;8543;54.522;18.550;2022-12-29T05:10:26;7.80;;;5.40;;
16854;SDS011;8543;54.522;18.550;2022-12-29T05:12:52;9.00;;;6.00;;
16854;SDS011;8543;54.522;18.550;2022-12-29T05:15:18;8.90;;;6.50;;
16854;SDS011;8543;54.522;18.550;2022-12-29T05:17:43;7.90;;;6.00;;
16854;SDS011;8543;54.522;18.550;2022-12-29T05:20:08;9.60;;;5.90;;
16854;SDS011;8543;54.522;18.550;2022-12-29T05:22:34;9.10;;;6.30;;
16854;SDS011;8543;54.522;18.550;2022-12-29T05:25:00;8.70;;;5.90;;
16854;SDS011;8543;54.522;18.550;2022-12-29T05:27:25;8.60;;;6.30;;
16854;SDS011;8543;54.522;18.550;2022-12-29T05:29:50;8.60;;;6.00;;
16854;SDS011;8543;54.522;18.550;2022-12-29T05:32:16;8.00;;;6.60;;
16854;SDS011;8543;54.522;18.550;2022-12-29T05:34:41;8.50;;;6.40;;
16854;SDS011;8543;54.522;18.550;2022-12-29T05:37:07;8.90;;;6.60;;
16854;SDS011;8543;54.522;18.550;2022-12-29T05:39:32;8.50;;;6.00;;
16854;SDS011;8543;54.522;18.550;2022-12-29T05:41:58;10.20;;;6.70;;
16854;SDS011;8543;54.522;18.550;2022-12-29T05:44:23;10.10;;;6.90;;
16854;SDS011;8543;54.522;18.550;2022-12-29T05:46:49;9.70;;;7.00;;
16854;SDS011;8543;54.522;18.550;2022-12-29T05:49:15;9.70;;;6.90;;
16854;SDS011;8543;54.522;18.550;2022-12-29T05:51:40;12.10;;;7.10;;
16854;SDS011;8543;54.522;18.550;2022-12-29T05:54:06;10.90;;;6.90;;
16854;SDS011;8543;54.522;18.550;2022-12-29T05:56:31;8.90;;;6.20;;
16854;SDS011;8543;54.522;18.550;2022-12-29T05:58:57;11.30;;;7.20;;
16854;SDS011;8543;54.522;18.550;2022-12-29T06:01:22;9.40;;;6.50;;
16854;SDS011;8543;54.522;18.550;2022-12-29T06:03:48;11.30;;;6.80;;
16854;SDS011;8543;54.522;18.550;2022-12-29T06:06:13;10.80;;;7.20;;
16854;SDS011;8543;54.522;18.550;2022-12-29T06:08:38;9.20;;;7.10;;
16854;SDS011;8543;54.522;18.550;2022-12-29T06:11:04;10.20;;;6.70;;
16854;SDS011;8543;54.522;18.550;2022-12-29T06:13:29;8.80;;;6.50;;
16854;SDS011;8543;54.522;18.550;2022-12-29T06:15:55;12.60;;;7.00;;
16854;SDS011;8543;54.522;18.550;2022-12-29T06:18:20;9.20;;;6.40;;
16854;SDS011;8543;54.522;18.550;2022-12-29T06:20:46;10.30;;;7.00;;
16854;SDS011;8543;54.522;18.550;2022-12-29T06:23:11;10.90;;;6.20;;
16854;SDS011;8543;54.522;18.550;2022-12-29T06:25:38;9.60;;;6.90;;
16854;SDS011;8543;54.522;18.550;2022-12-29T06:28:04;9.40;;;6.00;;
16854;SDS011;8543;54.522;18.550;2022-12-29T06:30:30;9.50;;;7.10;;
16854;SDS011;8543;54.522;18.550;2022-12-29T06:32:57;8.80;;;6.60;;
16854;SDS011;8543;54.522;18.550;2022-12-29T06:35:23;9.80;;;6.50;;
16854;SDS011;8543;54.522;18.550;2022-12-29T06:37:49;8.70;;;6.40;;
16854;SDS011;8543;54.522;18.550;2022-12-29T06:40:14;9.80;;;6.50;;
16854;SDS011;8543;54.522;18.550;2022-12-29T06:42:40;9.90;;;6.90;;
16854;SDS011;8543;54.522;18.550;2022-12-29T06:45:05;9.60;;;6.50;;
16854;SDS011;8543;54.522;18.550;2022-12-29T06:47:32;9.50;;;6.90;;
16854;SDS011;8543;54.522;18.550;2022-12-29T06:49:59;8.60;;;6.30;;
16854;SDS011;8543;54.522;18.550;2022-12-29T06:52:25;9.70;;;6.90;;
16854;SDS011;8543;54.522;18.550;2022-12-29T06:54:50;10.90;;;6.60;;
16854;SDS011;8543;54.522;18.550;2022-12-29T06:57:16;9.90;;;6.90;;
16854;SDS011;8543;54.522;18.550;2022-12-29T06:59:41;9.10;;;6.60;;
16854;SDS011;8543;54.522;18.550;2022-12-29T07:02:06;9.80;;;6.90;;
16854;SDS011;8543;54.522;18.550;2022-12-29T07:04:33;9.30;;;6.70;;
16854;SDS011;8543;54.522;18.550;2022-12-29T07:06:58;7.50;;;5.90;;
16854;SDS011;8543;54.522;18.550;2022-12-29T07:09:24;11.10;;;6.50;;
16854;SDS011;8543;54.522;18.550;2022-12-29T07:11:49;11.00;;;6.70;;
16854;SDS011;8543;54.522;18.550;2022-12-29T07:14:15;8.40;;;6.20;;
16854;SDS011;8543;54.522;18.550;2022-12-29T07:16:40;8.80;;;6.60;;
16854;SDS011;8543;54.522;18.550;2022-12-29T07:19:06;8.90;;;6.10;;
16854;SDS011;8543;54.522;18.550;2022-12-29T07:21:31;11.30;;;6.90;;
16854;SDS011;8543;54.522;18.550;2022-12-29T07:23:57;9.30;;;6.60;;
16854;SDS011;8543;54.522;18.550;2022-12-29T07:26:22;8.90;;;6.00;;
16854;SDS011;8543;54.522;18.550;2022-12-29T07:28:47;9.20;;;5.90;;
16854;SDS011;8543;54.522;18.550;2022-12-29T07:31:13;8.20;;;5.50;;
16854;SDS011;8543;54.522;18.550;2022-12-29T07:33:41;9.20;;;7.00;;
16854;SDS011;8543;54.522;18.550;2022-12-29T07:36:08;10.60;;;6.40;;
16854;SDS011;8543;54.522;18.550;2022-12-29T07:38:34;8.70;;;5.80;;
16854;SDS011;8543;54.522;18.550;2022-12-29T07:40:59;9.60;;;6.40;;
16854;SDS011;8543;54.522;18.550;2022-12-29T07:43:25;8.80;;;6.10;;
16854;SDS011;8543;54.522;18.550;2022-12-29T07:45:51;8.90;;;5.90;;
16854;SDS011;8543;54.522;18.550;2022-12-29T07:48:17;7.30;;;5.20;;
16854;SDS011;8543;54.522;18.550;2022-12-29T07:50:42;10.40;;;6.30;;
16854;SDS011;8543;54.522;18.550;2022-12-29T07:53:08;9.70;;;5.70;;
16854;SDS011;8543;54.522;18.550;2022-12-29T07:55:33;6.80;;;5.20;;
16854;SDS011;8543;54.522;18.550;2022-12-29T07:57:58;9.60;;;6.70;;
16854;SDS011;8543;54.522;18.550;2022-12-29T08:00:24;9.30;;;6.10;;
16854;SDS011;8543;54.522;18.550;2022-12-29T08:02:49;9.20;;;6.90;;
16854;SDS011;8543;54.522;18.550;2022-12-29T08:05:15;11.10;;;6.10;;
16854;SDS011;8543;54.522;18.550;2022-12-29T08:07:42;7.10;;;5.30;;
16854;SDS011;8543;54.522;18.550;2022-12-29T08:10:09;10.00;;;6.20;;
16854;SDS011;8543;54.522;18.550;2022-12-29T08:12:34;8.10;;;6.00;;
16854;SDS011;8543;54.522;18.550;2022-12-29T08:15:00;9.30;;;6.30;;
16854;SDS011;8543;54.522;18.550;2022-12-29T08:17:25;8.30;;;6.20;;
16854;SDS011;8543;54.522;18.550;2022-12-29T08:19:50;9.70;;;5.80;;
16854;SDS011;8543;54.522;18.550;2022-12-29T08:22:16;11.00;;;5.70;;
16854;SDS011;8543;54.522;18.550;2022-12-29T08:24:41;9.10;;;5.50;;
16854;SDS011;8543;54.522;18.550;2022-12-29T08:27:07;8.10;;;5.90;;
16854;SDS011;8543;54.522;18.550;2022-12-29T08:29:32;7.40;;;5.80;;
16854;SDS011;8543;54.522;18.550;2022-12-29T08:31:57;8.00;;;5.60;;
16854;SDS011;8543;54.522;18.550;2022-12-29T08:34:23;8.10;;;5.80;;
16854;SDS011;8543;54.522;18.550;2022-12-29T08:36:48;7.30;;;5.30;;
16854;SDS011;8543;54.522;18.550;2022-12-29T08:39:14;9.80;;;6.10;;
16854;SDS011;8543;54.522;18.550;2022-12-29T08:41:39;8.50;;;5.40;;
16854;SDS011;8543;54.522;18.550;2022-12-29T08:44:05;9.90;;;5.60;;
16854;SDS011;8543;54.522;18.550;2022-12-29T08:46:31;9.20;;;6.00;;
16854;SDS011;8543;54.522;18.550;2022-12-29T08:48:56;8.40;;;5.60;;
16854;SDS011;8543;54.522;18.550;2022-12-29T08:51:22;8.40;;;6.10;;
16854;SDS011;8543;54.522;18.550;2022-12-29T08:53:47;8.40;;;6.10;;
16854;SDS011;8543;54.522;18.550;2022-12-29T08:56:13;8.50;;;5.40;;
16854;SDS011;8543;54.522;18.550;2022-12-29T08:58:38;7.30;;;5.50;;
16854;SDS011;8543;54.522;18.550;2022-12-29T09:01:04;7.90;;;5.60;;
16854;SDS011;8543;54.522;18.550;2022-12-29T09:03:29;8.60;;;5.50;;
16854;SDS011;8543;54.522;18.550;2022-12-29T09:05:55;9.40;;;5.90;;
16854;SDS011;8543;54.522;18.550;2022-12-29T09:08:21;8.70;;;6.00;;
16854;SDS011;8543;54.522;18.550;2022-12-29T09:10:47;8.90;;;6.20;;
16854;SDS011;8543;54.522;18.550;2022-12-29T09:13:14;9.50;;;6.10;;
16854;SDS011;8543;54.522;18.550;2022-12-29T09:15:40;9.50;;;5.80;;
16854;SDS011;8543;54.522;18.550;2022-12-29T09:18:06;8.20;;;5.60;;
16854;SDS011;8543;54.522;18.550;2022-12-29T09:20:32;7.90;;;5.80;;
16854;SDS011;8543;54.522;18.550;2022-12-29T09:22:58;7.80;;;5.70;;
16854;SDS011;8543;54.522;18.550;2022-12-29T09:25:24;8.80;;;5.70;;
16854;SDS011;8543;54.522;18.550;2022-12-29T09:27:50;8.10;;;5.80;;
16854;SDS011;8543;54.522;18.550;2022-12-29T09:30:19;7.70;;;5.40;;
16854;SDS011;8543;54.522;18.550;2022-12-29T09:32:45;6.70;;;5.20;;
16854;SDS011;8543;54.522;18.550;2022-12-29T09:35:11;8.00;;;5.60;;
16854;SDS011;8543;54.522;18.550;2022-12-29T09:37:37;8.50;;;5.70;;
16854;SDS011;8543;54.522;18.550;2022-12-29T09:40:03;8.70;;;5.80;;
16854;SDS011;8543;54.522;18.550;2022-12-29T09:42:32;9.60;;;6.10;;
16854;SDS011;8543;54.522;18.550;2022-12-29T09:47:27;9.00;;;5.80;;
16854;SDS011;8543;54.522;18.550;2022-12-29T09:49:59;8.40;;;5.30;;
16854;SDS011;8543;54.522;18.550;2022-12-29T09:52:48;7.80;;;4.90;;
16854;SDS011;8543;54.522;18.550;2022-12-29T09:55:17;9.10;;;5.90;;
16854;SDS011;8543;54.522;18.550;2022-12-29T09:58:04;8.40;;;5.60;;
16854;SDS011;8543;54.522;18.550;2022-12-29T10:00:38;8.20;;;5.60;;
16854;SDS011;8543;54.522;18.550;2022-12-29T10:05:39;7.50;;;5.40;;
16854;SDS011;8543;54.522;18.550;2022-12-29T10:08:13;7.50;;;5.70;;
16854;SDS011;8543;54.522;18.550;2022-12-29T10:24:33;7.80;;;5.30;;
16854;SDS011;8543;54.522;18.550;2022-12-29T10:26:59;7.60;;;5.20;;
16854;SDS011;8543;54.522;18.550;2022-12-29T10:29:32;8.60;;;5.40;;
16854;SDS011;8543;54.522;18.550;2022-12-29T10:31:59;9.40;;;6.20;;
16854;SDS011;8543;54.522;18.550;2022-12-29T10:34:39;8.70;;;5.10;;
16854;SDS011;8543;54.522;18.550;2022-12-29T10:37:14;7.00;;;5.20;;
16854;SDS011;8543;54.522;18.550;2022-12-29T10:39:50;8.00;;;5.40;;
16854;SDS011;8543;54.522;18.550;2022-12-29T10:42:27;9.30;;;5.90;;
16854;SDS011;8543;54.522;18.550;2022-12-29T10:44:54;8.60;;;5.40;;
16854;SDS011;8543;54.522;18.550;2022-12-29T10:47:22;8.10;;;5.30;;
16854;SDS011;8543;54.522;18.550;2022-12-29T10:49:50;7.20;;;5.20;;
16854;SDS011;8543;54.522;18.550;2022-12-29T10:52:16;8.50;;;5.50;;
16854;SDS011;8543;54.522;18.550;2022-12-29T10:54:56;7.20;;;5.10;;
16854;SDS011;8543;54.522;18.550;2022-12-29T10:57:34;9.90;;;5.40;;
16854;SDS011;8543;54.522;18.550;2022-12-29T11:00:16;8.00;;;5.20;;
16854;SDS011;8543;54.522;18.550;2022-12-29T11:02:56;7.90;;;5.30;;
16854;SDS011;8543;54.522;18.550;2022-12-29T11:08:17;8.00;;;5.40;;
16854;SDS011;8543;54.522;18.550;2022-12-29T11:10:44;7.40;;;5.20;;
16854;SDS011;8543;54.522;18.550;2022-12-29T11:13:18;9.10;;;5.60;;
16854;SDS011;8543;54.522;18.550;2022-12-29T11:15:50;7.70;;;4.80;;
16854;SDS011;8543;54.522;18.550;2022-12-29T11:18:26;7.60;;;5.00;;
16854;SDS011;8543;54.522;18.550;2022-12-29T11:20:57;8.10;;;4.90;;
16854;SDS011;8543;54.522;18.550;2022-12-29T11:28:32;8.10;;;4.80;;
16854;SDS011;8543;54.522;18.550;2022-12-29T11:31:02;7.20;;;4.40;;
16854;SDS011;8543;54.522;18.550;2022-12-29T11:33:29;6.60;;;4.40;;
16854;SDS011;8543;54.522;18.550;2022-12-29T11:36:02;9.40;;;5.10;;
16854;SDS011;8543;54.522;18.550;2022-12-29T11:38:48;6.50;;;4.30;;
16854;SDS011;8543;54.522;18.550;2022-12-29T11:41:20;7.90;;;5.00;;
16854;SDS011;8543;54.522;18.550;2022-12-29T11:43:50;9.50;;;4.90;;
16854;SDS011;8543;54.522;18.550;2022-12-29T11:46:20;7.10;;;4.30;;
16854;SDS011;8543;54.522;18.550;2022-12-29T11:48:48;9.70;;;5.40;;
16854;SDS011;8543;54.522;18.550;2022-12-29T11:51:21;8.60;;;4.60;;
16854;SDS011;8543;54.522;18.550;2022-12-29T11:54:00;10.00;;;4.90;;
16854;SDS011;8543;54.522;18.550;2022-12-29T11:56:35;6.80;;;4.30;;
16854;SDS011;8543;54.522;18.550;2022-12-29T11:59:39;8.50;;;4.90;;
16854;SDS011;8543;54.522;18.550;2022-12-29T12:04:58;10.20;;;5.00;;
16854;SDS011;8543;54.522;18.550;2022-12-29T12:07:43;8.30;;;4.60;;
16854;SDS011;8543;54.522;18.550;2022-12-29T12:10:15;8.50;;;4.70;;
16854;SDS011;8543;54.522;18.550;2022-12-29T12:15:30;6.60;;;4.60;;
16854;SDS011;8543;54.522;18.550;2022-12-29T12:18:09;8.50;;;5.00;;
16854;SDS011;8543;54.522;18.550;2022-12-29T12:20:42;8.90;;;4.60;;
16854;SDS011;8543;54.522;18.550;2022-12-29T12:25:54;6.20;;;4.10;;
16854;SDS011;8543;54.522;18.550;2022-12-29T12:28:28;6.30;;;4.80;;
16854;SDS011;8543;54.522;18.550;2022-12-29T12:31:00;10.90;;;5.20;;
16854;SDS011;8543;54.522;18.550;2022-12-29T12:33:28;7.80;;;4.50;;
16854;SDS011;8543;54.522;18.550;2022-12-29T12:36:26;7.40;;;4.20;;
16854;SDS011;8543;54.522;18.550;2022-12-29T12:39:02;8.40;;;4.70;;
16854;SDS011;8543;54.522;18.550;2022-12-29T12:41:44;6.80;;;4.30;;
16854;SDS011;8543;54.522;18.550;2022-12-29T12:44:20;6.50;;;4.20;;
16854;SDS011;8543;54.522;18.550;2022-12-29T12:47:10;7.00;;;4.30;;
16854;SDS011;8543;54.522;18.550;2022-12-29T12:53:25;6.80;;;4.50;;
16854;SDS011;8543;54.522;18.550;2022-12-29T12:56:11;6.60;;;4.80;;
16854;SDS011;8543;54.522;18.550;2022-12-29T13:04:32;9.00;;;4.70;;
16854;SDS011;8543;54.522;18.550;2022-12-29T13:09:46;9.50;;;5.30;;
16854;SDS011;8543;54.522;18.550;2022-12-29T13:15:10;7.50;;;4.70;;
16854;SDS011;8543;54.522;18.550;2022-12-29T13:28:54;8.50;;;5.40;;
16854;SDS011;8543;54.522;18.550;2022-12-29T13:31:32;8.30;;;4.40;;
16854;SDS011;8543;54.522;18.550;2022-12-29T13:36:48;8.40;;;4.90;;
16854;SDS011;8543;54.522;18.550;2022-12-29T13:39:34;7.10;;;5.10;;
16854;SDS011;8543;54.522;18.550;2022-12-29T13:42:02;8.30;;;4.70;;
16854;SDS011;8543;54.522;18.550;2022-12-29T13:44:45;6.30;;;4.40;;
16854;SDS011;8543;54.522;18.550;2022-12-29T13:47:25;6.30;;;4.30;;
16854;SDS011;8543;54.522;18.550;2022-12-29T13:49:55;6.80;;;4.90;;
16854;SDS011;8543;54.522;18.550;2022-12-29T13:55:19;6.90;;;4.60;;
16854;SDS011;8543;54.522;18.550;2022-12-29T13:57:53;6.60;;;4.50;;
16854;SDS011;8543;54.522;18.550;2022-12-29T14:00:29;6.40;;;4.50;;
16854;SDS011;8543;54.522;18.550;2022-12-29T14:03:11;5.90;;;4.40;;
16854;SDS011;8543;54.522;18.550;2022-12-29T14:05:38;6.90;;;4.20;;
16854;SDS011;8543;54.522;18.550;2022-12-29T14:08:04;7.30;;;5.10;;
16854;SDS011;8543;54.522;18.550;2022-12-29T14:13:16;7.60;;;4.90;;
16854;SDS011;8543;54.522;18.550;2022-12-29T14:15:43;7.10;;;4.80;;
16854;SDS011;8543;54.522;18.550;2022-12-29T14:18:17;7.40;;;4.70;;
16854;SDS011;8543;54.522;18.550;2022-12-29T14:20:57;7.10;;;4.80;;
16854;SDS011;8543;54.522;18.550;2022-12-29T14:23:40;6.60;;;4.60;;
16854;SDS011;8543;54.522;18.550;2022-12-29T14:28:33;7.10;;;5.20;;
16854;SDS011;8543;54.522;18.550;2022-12-29T14:31:49;8.60;;;5.30;;
16854;SDS011;8543;54.522;18.550;2022-12-29T14:39:00;8.20;;;5.00;;
16854;SDS011;8543;54.522;18.550;2022-12-29T14:41:30;8.40;;;4.70;;
16854;SDS011;8543;54.522;18.550;2022-12-29T14:44:17;8.50;;;5.20;;
16854;SDS011;8543;54.522;18.550;2022-12-29T14:49:20;6.60;;;4.40;;
16854;SDS011;8543;54.522;18.550;2022-12-29T14:51:48;8.10;;;5.10;;
16854;SDS011;8543;54.522;18.550;2022-12-29T14:54:40;7.20;;;4.60;;
16854;SDS011;8543;54.522;18.550;2022-12-29T14:57:13;7.10;;;4.60;;
16854;SDS011;8543;54.522;18.550;2022-12-29T15:00:34;7.40;;;4.30;;
16854;SDS011;8543;54.522;18.550;2022-12-29T15:02:54;9.00;;;5.30;;
16854;SDS011;8543;54.522;18.550;2022-12-29T15:05:32;9.30;;;5.20;;
16854;SDS011;8543;54.522;18.550;2022-12-29T15:07:59;9.40;;;5.70;;
16854;SDS011;8543;54.522;18.550;2022-12-29T15:10:25;7.20;;;4.80;;
16854;SDS011;8543;54.522;18.550;2022-12-29T15:12:53;8.30;;;5.00;;
16854;SDS011;8543;54.522;18.550;2022-12-29T15:15:23;7.70;;;5.00;;
16854;SDS011;8543;54.522;18.550;2022-12-29T15:17:51;8.00;;;5.10;;
16854;SDS011;8543;54.522;18.550;2022-12-29T15:20:20;7.30;;;5.20;;
16854;SDS011;8543;54.522;18.550;2022-12-29T15:22:54;9.10;;;5.10;;
16854;SDS011;8543;54.522;18.550;2022-12-29T15:25:25;7.20;;;4.80;;
16854;SDS011;8543;54.522;18.550;2022-12-29T15:28:02;8.60;;;4.90;;
16854;SDS011;8543;54.522;18.550;2022-12-29T15:30:29;8.20;;;5.00;;
16854;SDS011;8543;54.522;18.550;2022-12-29T15:32:55;7.70;;;5.40;;
16854;SDS011;8543;54.522;18.550;2022-12-29T15:35:36;10.70;;;5.70;;
16854;SDS011;8543;54.522;18.550;2022-12-29T15:41:02;8.50;;;5.20;;
16854;SDS011;8543;54.522;18.550;2022-12-29T15:43:41;7.00;;;5.10;;
16854;SDS011;8543;54.522;18.550;2022-12-29T15:46:18;8.70;;;4.90;;
16854;SDS011;8543;54.522;18.550;2022-12-29T15:48:44;8.60;;;5.00;;
16854;SDS011;8543;54.522;18.550;2022-12-29T15:51:17;7.20;;;4.90;;
16854;SDS011;8543;54.522;18.550;2022-12-29T15:53:46;8.30;;;4.90;;
16854;SDS011;8543;54.522;18.550;2022-12-29T15:56:13;7.80;;;4.70;;
16854;SDS011;8543;54.522;18.550;2022-12-29T15:58:42;7.70;;;4.70;;
16854;SDS011;8543;54.522;18.550;2022-12-29T16:01:23;7.50;;;4.70;;
16854;SDS011;8543;54.522;18.550;2022-12-29T16:03:53;7.90;;;5.00;;
16854;SDS011;8543;54.522;18.550;2022-12-29T16:06:39;7.50;;;5.00;;
16854;SDS011;8543;54.522;18.550;2022-12-29T16:09:16;9.20;;;5.30;;
16854;SDS011;8543;54.522;18.550;2022-12-29T16:11:44;7.50;;;4.90;;
16854;SDS011;8543;54.522;18.550;2022-12-29T16:14:17;9.10;;;5.50;;
16854;SDS011;8543;54.522;18.550;2022-12-29T16:16:45;10.50;;;5.40;;
16854;SDS011;8543;54.522;18.550;2022-12-29T16:19:13;8.30;;;5.10;;
16854;SDS011;8543;54.522;18.550;2022-12-29T16:21:43;8.60;;;5.00;;
16854;SDS011;8543;54.522;18.550;2022-12-29T16:24:11;8.50;;;5.20;;
16854;SDS011;8543;54.522;18.550;2022-12-29T16:26:44;9.50;;;5.30;;
16854;SDS011;8543;54.522;18.550;2022-12-29T16:29:23;9.40;;;5.80;;
16854;SDS011;8543;54.522;18.550;2022-12-29T16:31:50;9.50;;;5.70;;
16854;SDS011;8543;54.522;18.550;2022-12-29T16:34:29;11.70;;;6.20;;
16854;SDS011;8543;54.522;18.550;2022-12-29T16:39:30;10.70;;;5.50;;
16854;SDS011;8543;54.522;18.550;2022-12-29T16:41:56;7.30;;;4.60;;
16854;SDS011;8543;54.522;18.550;2022-12-29T16:49:23;10.10;;;5.80;;
16854;SDS011;8543;54.522;18.550;2022-12-29T16:51:50;9.00;;;4.90;;
16854;SDS011;8543;54.522;18.550;2022-12-29T16:54:35;7.80;;;4.80;;
16854;SDS011;8543;54.522;18.550;2022-12-29T16:57:01;9.40;;;5.20;;
16854;SDS011;8543;54.522;18.550;2022-12-29T17:01:56;7.80;;;5.30;;
16854;SDS011;8543;54.522;18.550;2022-12-29T17:04:22;10.10;;;5.70;;
16854;SDS011;8543;54.522;18.550;2022-12-29T17:06:48;10.70;;;5.50;;
16854;SDS011;8543;54.522;18.550;2022-12-29T17:09:20;8.80;;;5.20;;
16854;SDS011;8543;54.522;18.550;2022-12-29T17:11:48;8.60;;;4.10;;
16854;SDS011;8543;54.522;18.550;2022-12-29T17:16:46;8.00;;;4.20;;
16854;SDS011;8543;54.522;18.550;2022-12-29T17:19:15;8.70;;;3.90;;
16854;SDS011;8543;54.522;18.550;2022-12-29T17:21:41;6.10;;;3.20;;